Date,TemperatureHighF,TemperatureAvgF,TemperatureLowF,DewpointHighF,DewpointAvgF,DewpointLowF,HumidityHigh,HumidityAvg,HumidityLow,PressureMaxIn,PressureMinIn,WindSpeedMaxMPH,WindSpeedAvgMPH,GustSpeedMaxMPH,PrecipitationSumIn
2013-1-2,51.4,49.4,45.9,51.0,48.7,43.6,99,98,88,30.01,29.90,4,1,9,0.00
2013-1-3,54.3,51.3,49.5,51.2,49.9,49.0,99,95,88,30.29,30.00,4,1,10,0.00
2013-1-4,47.1,46.5,46.2,46.4,45.9,45.6,98,98,97,29.92,29.91,3,1,8,0.00
2013-1-5,51.6,47.7,43.3,50.6,46.5,43.1,99,96,88,29.91,29.83,4,0,11,0.00
2013-1-6,47.3,44.6,40.3,47.0,44.2,40.0,99,99,97,29.84,29.70,3,0,9,0.00
2013-1-7,47.8,46.6,44.2,47.0,45.9,44.0,99,97,95,29.70,29.55,2,0,7,0.00
2013-1-8,53.2,49.5,44.8,48.6,47.2,43.2,99,92,81,29.59,29.50,4,0,8,0.00
2013-1-9,52.9,43.8,31.1,48.7,42.6,30.9,99,96,72,29.49,29.39,3,0,5,0.00
2013-1-10,39.9,37.5,30.2,38.8,36.6,30.0,99,97,94,29.37,29.23,4,0,8,0.00
2013-1-11,51.4,37.4,32.4,40.6,35.9,32.1,99,95,66,29.40,29.29,2,0,3,0.00
2013-1-12,40.8,38.3,37.0,38.5,34.1,30.2,99,85,67,29.28,29.15,9,3,17,0.00
2013-1-13,42.1,35.7,30.6,36.4,30.4,27.4,94,81,63,29.46,29.26,8,2,13,0.00
2013-1-14,36.7,33.5,30.6,36.4,32.6,28.8,99,96,91,29.42,28.95,5,0,13,0.00
2013-1-15,40.3,30.8,25.9,34.0,29.2,25.2,99,94,78,29.18,28.94,4,0,11,0.00
2013-1-16,36.3,28.1,23.4,31.8,27.2,23.1,99,96,81,29.34,29.15,4,0,7,0.00
2013-1-17,35.4,32.1,26.6,30.8,29.0,26.4,99,89,82,29.35,29.31,1,0,4,0.00
2013-1-20,35.2,31.8,30.9,31.5,30.9,29.9,98,97,83,29.31,28.63,4,1,7,0.00
2013-1-23,35.8,34.9,34.5,33.7,31.3,30.4,92,87,84,29.10,29.04,5,2,11,0.00
2013-1-24,34.9,34.7,34.5,31.7,31.2,30.5,88,87,85,29.32,29.10,4,2,6,0.00
2013-1-30,55.4,50.2,44.8,53.7,43.4,35.6,99,79,49,29.35,28.83,9,4,22,0.00
2013-1-31,52.7,48.4,45.3,46.9,41.3,37.7,96,77,61,29.35,29.12,6,3,14,0.04
2013-2-1,46.9,41.5,33.3,42.8,39.2,33.0,99,92,81,29.16,28.77,3,0,8,0.08
2013-2-2,43.5,37.5,27.1,39.4,31.2,25.1,99,79,62,29.57,28.92,5,1,17,0.01
2013-2-3,49.1,40.8,26.4,47.2,38.2,24.7,96,91,79,29.58,29.22,6,1,15,0.00
2013-2-4,54.5,48.2,43.2,47.6,40.2,33.5,93,75,49,29.27,29.04,7,3,14,0.00
2013-2-5,46.6,40.9,35.6,37.8,30.7,24.8,95,68,45,29.01,28.66,8,3,16,0.00
2013-2-6,43.9,40.3,35.1,39.0,33.6,27.6,92,77,66,29.37,28.68,8,3,15,0.00
2013-2-7,45.5,38.7,29.7,35.1,30.5,25.4,96,73,53,29.43,29.29,5,1,11,0.00
2013-2-8,45.9,38.9,28.9,37.0,33.9,28.7,99,83,54,29.46,29.32,4,1,11,0.00
2013-2-9,39.4,37.5,33.6,37.2,35.9,31.2,98,94,84,29.47,29.16,5,0,9,0.00
2013-2-10,41.4,38.2,34.2,41.1,37.8,33.9,99,99,97,29.16,28.54,6,2,15,0.00
2013-2-11,35.2,34.0,32.7,35.0,33.6,32.5,99,99,97,29.06,28.57,7,2,11,0.00
2013-2-12,35.8,34.6,33.4,34.0,30.5,27.4,98,85,75,29.44,29.06,7,2,14,0.00
2013-2-13,39.7,35.1,33.1,39.5,29.9,24.7,99,81,64,29.52,29.28,5,2,15,0.00
2013-2-14,57.0,46.3,38.7,49.9,42.2,37.4,99,87,60,29.29,29.05,8,2,14,0.00
2013-2-15,56.7,44.0,32.4,42.7,35.3,32.1,99,73,46,29.51,29.28,4,0,10,0.00
2013-2-16,57.9,44.6,35.6,48.0,36.4,33.6,96,75,47,29.55,29.49,3,0,5,0.32
2013-2-17,55.2,40.5,30.6,45.3,34.8,30.1,99,83,44,29.51,29.40,3,1,7,0.00
2013-2-18,54.0,40.4,30.0,37.9,33.0,28.5,99,76,50,29.44,29.40,4,1,8,0.00
2013-2-19,59.7,34.5,25.3,40.6,30.1,25.1,99,86,42,29.44,29.34,2,0,4,0.00
2013-2-20,45.9,37.5,33.4,39.1,32.4,26.6,99,83,56,29.55,29.40,11,3,21,0.02
2013-2-21,38.8,34.0,31.1,26.6,22.9,20.0,73,64,53,29.57,29.45,10,4,17,0.00
2013-2-22,34.9,33.3,32.4,26.5,24.3,20.4,76,69,60,29.46,29.39,10,5,17,0.00
2013-2-23,36.1,33.6,32.0,28.0,25.0,21.5,81,71,57,29.50,29.37,9,4,17,0.00
2013-2-24,36.0,34.1,32.5,29.5,27.7,26.1,87,77,69,29.57,29.49,12,3,17,0.00
2013-2-25,39.6,37.4,33.6,36.3,33.8,28.2,93,87,79,29.67,29.55,11,4,19,0.00
2013-2-26,41.0,39.3,36.3,39.8,38.0,9.6,99,95,91,29.85,29.67,11,4,16,0.02
2013-2-27,44.1,38.4,35.6,38.1,34.8,33.0,99,87,68,29.87,29.77,11,4,20,0.00
2013-2-28,45.7,39.4,34.5,38.0,35.1,32.4,93,85,73,29.78,29.62,11,4,16,0.00
2013-3-1,44.4,40.1,36.1,41.4,34.6,30.2,99,81,64,29.70,29.66,10,4,17,0.01
2013-3-2,48.0,36.7,26.4,33.4,29.9,24.9,95,77,55,29.70,29.58,7,2,13,0.00
2013-3-3,46.4,36.0,24.3,37.0,32.0,23.4,99,86,66,29.59,29.39,8,1,12,0.00
2013-3-4,58.6,40.3,29.1,38.7,34.1,28.6,99,81,41,29.39,29.02,8,2,11,0.00
2013-3-5,68.4,46.5,28.9,47.8,37.7,28.6,99,75,40,29.03,28.87,4,0,9,0.00
2013-3-6,60.3,53.0,41.5,45.8,44.0,37.9,92,72,57,28.87,28.78,6,1,11,0.00
2013-3-7,51.1,49.6,44.2,50.6,49.2,44.0,99,99,93,28.80,28.65,4,1,7,0.18
2013-3-8,50.0,49.2,47.8,49.7,49.0,47.6,99,99,99,28.76,28.66,2,1,4,0.24
2013-3-9,47.5,44.0,38.7,47.2,43.0,35.1,99,96,87,28.95,28.83,5,1,8,0.02
2013-3-10,38.5,36.4,33.8,35.1,32.4,28.6,91,85,80,29.03,28.95,11,5,17,0.00
2013-3-11,33.6,30.5,28.8,29.3,23.3,20.6,88,74,65,29.04,29.00,17,10,34,0.00
2013-3-12,41.4,34.0,28.4,32.6,22.7,15.2,88,65,40,29.12,29.01,21,8,33,0.00
2013-3-13,50.2,37.3,28.6,32.5,29.1,24.1,95,74,40,29.25,29.09,13,1,20,0.00
2013-3-14,50.4,36.0,23.0,36.0,25.7,21.0,99,70,34,29.34,29.23,6,0,11,0.00
2013-3-15,50.0,44.7,35.8,43.5,41.2,26.4,98,88,68,29.22,28.86,7,2,14,0.11
2013-3-16,47.1,43.3,41.2,44.6,41.8,39.3,99,94,88,28.86,28.57,8,2,24,0.59
2013-3-17,45.1,37.7,31.3,43.1,36.9,31.0,99,97,88,28.62,28.44,3,0,7,0.18
2013-3-18,47.3,38.4,30.2,45.3,37.4,30.0,99,96,82,28.64,28.51,6,0,8,0.13
2013-3-19,52.5,41.9,32.5,42.1,37.6,32.0,99,86,56,28.79,28.64,5,1,10,0.02
2013-3-20,53.4,39.7,33.4,39.2,36.4,33.2,99,88,55,29.29,28.79,8,2,12,0.00
2013-3-21,46.0,40.1,32.9,35.8,34.3,31.8,96,80,62,29.32,29.20,8,2,17,0.08
2013-3-22,46.8,39.6,36.1,37.2,35.7,34.1,95,86,67,29.21,29.01,11,4,21,0.21
2013-3-23,38.3,34.8,33.1,36.4,34.3,32.8,99,98,91,29.16,29.03,9,4,16,0.31
2013-3-24,34.7,32.8,31.3,34.1,28.6,23.0,99,85,62,29.23,29.15,13,5,22,0.00
2013-3-25,34.7,33.9,33.1,26.2,25.0,22.9,74,69,62,29.26,29.21,12,6,22,0.00
2013-3-26,34.9,34.0,32.9,25.7,24.7,23.6,72,69,63,29.24,29.18,9,5,17,0.00
2013-3-27,42.1,35.5,31.6,27.4,25.2,22.9,81,67,50,29.18,29.14,8,4,14,0.00
2013-3-28,41.2,37.1,28.4,30.8,23.7,19.9,94,59,47,29.25,29.15,9,4,15,0.00
2013-3-29,34.5,33.3,32.0,23.0,21.9,20.6,68,63,57,29.22,29.21,5,2,9,0.00
2013-3-30,42.6,36.5,28.0,31.9,28.9,25.5,94,75,53,28.90,28.70,9,2,14,0.00
2013-3-31,45.5,34.5,21.6,37.6,25.7,20.9,99,73,45,28.90,28.81,8,2,15,0.00
2013-4-1,44.8,36.9,31.5,30.6,26.8,21.2,88,68,43,28.81,28.75,13,4,25,0.00
2013-4-2,48.4,39.9,30.9,31.6,22.1,11.4,88,52,24,29.36,28.79,15,6,23,0.00
2013-4-3,39.2,35.0,26.1,32.0,25.4,22.5,96,69,55,29.36,29.28,14,5,25,0.00
2013-4-4,37.6,35.8,33.3,33.4,28.9,24.1,97,77,63,29.28,29.18,13,6,26,0.02
2013-4-5,45.3,38.4,34.9,31.3,27.4,20.7,81,66,39,29.40,29.19,11,5,19,0.00
2013-4-6,55.9,44.1,33.3,32.9,26.6,22.8,93,53,30,29.58,29.39,8,2,13,0.00
2013-4-7,57.0,42.2,27.9,29.6,24.1,15.3,88,55,20,29.58,29.17,4,1,9,0.00
2013-4-8,52.9,44.8,37.8,36.5,33.1,25.8,87,65,44,29.24,28.83,10,4,17,0.00
2013-4-9,47.1,42.5,37.4,43.9,40.4,36.0,99,92,83,28.83,28.67,7,3,12,0.06
2013-4-10,53.2,44.7,36.3,43.4,40.5,34.8,99,86,64,29.02,28.70,7,1,14,0.21
2013-4-11,44.6,43.6,42.8,44.3,43.4,42.5,99,99,99,28.77,28.64,8,3,14,0.08
2013-4-12,55.4,48.8,32.0,52.5,46.4,29.7,98,91,80,29.05,28.25,8,1,16,0.60
2013-4-13,54.5,48.4,39.0,52.1,46.2,37.6,99,92,72,29.21,29.05,7,2,14,0.18
2013-4-14,72.1,58.3,51.3,53.0,49.2,46.0,99,73,45,29.26,29.18,5,2,11,0.00
2013-4-15,65.5,56.4,48.4,50.6,48.5,45.0,89,76,55,29.37,29.24,6,2,15,0.00
2013-4-16,66.4,59.4,48.0,50.3,45.2,41.5,96,61,41,29.40,29.22,8,3,17,0.00
2013-4-17,70.7,60.3,48.6,54.0,50.4,45.5,99,71,48,29.40,29.08,10,3,20,0.00
2013-4-18,62.2,51.5,45.7,48.1,41.0,34.2,90,68,47,29.41,29.09,9,4,21,0.11
2013-4-19,63.1,49.8,40.5,44.0,39.5,30.6,91,70,31,29.81,29.41,8,2,14,0.00
2013-4-20,52.7,41.6,31.5,41.4,35.3,31.0,99,81,48,29.86,29.81,5,1,9,0.00